createdAt,value
2017-10-15T00:03:26.225Z,-63
2017-10-15T00:13:26.179Z,-63
2017-10-15T00:23:31.381Z,-63
2017-10-15T00:33:31.106Z,-60
2017-10-15T00:43:28.187Z,-64
2017-10-15T00:53:26.178Z,-63
2017-10-15T01:03:26.262Z,-62
2017-10-15T01:13:32.222Z,-63
2017-10-15T01:23:26.252Z,-63
2017-10-15T01:33:27.223Z,-63
2017-10-15T01:43:26.262Z,-65
2017-10-15T01:53:26.267Z,-65
2017-10-15T02:03:26.353Z,-63
2017-10-15T02:13:28.308Z,-63
2017-10-15T02:23:26.231Z,-62
2017-10-15T02:33:27.297Z,-64
2017-10-15T02:43:26.260Z,-64
2017-10-15T02:53:28.282Z,-63
2017-10-15T03:03:26.271Z,-64
2017-10-15T03:13:26.354Z,-64
2017-10-15T03:23:27.387Z,-63
2017-10-15T03:33:26.416Z,-63
2017-10-15T03:43:26.393Z,-63
2017-10-15T03:53:30.175Z,-63
2017-10-15T04:03:36.171Z,-62
2017-10-15T04:13:27.426Z,-64
2017-10-15T04:23:27.392Z,-64
2017-10-15T04:33:26.392Z,-65
2017-10-15T04:43:27.418Z,-64
2017-10-15T04:53:26.459Z,-63
2017-10-15T05:03:31.747Z,-64
2017-10-15T05:13:26.495Z,-60
2017-10-15T05:23:27.508Z,-62
2017-10-15T05:33:26.410Z,-62
2017-10-15T05:43:27.520Z,-62
2017-10-15T05:53:27.488Z,-63
2017-10-15T06:03:27.549Z,-64
2017-10-15T06:13:26.424Z,-63
2017-10-15T06:23:26.510Z,-63
2017-10-15T06:33:26.523Z,-63
2017-10-15T06:43:26.561Z,-62
2017-10-15T06:53:26.488Z,-65
2017-10-15T07:03:27.654Z,-64
2017-10-15T07:13:28.588Z,-62
2017-10-15T07:23:26.584Z,-65
2017-10-15T07:33:27.574Z,-65
2017-10-15T07:43:30.089Z,-64
2017-10-15T07:53:26.600Z,-62
2017-10-15T08:03:26.539Z,-64
2017-10-15T08:13:26.651Z,-64
2017-10-15T08:23:27.645Z,-63
2017-10-15T08:33:26.766Z,-64
2017-10-15T08:43:26.709Z,-67
2017-10-15T08:53:26.703Z,-65
2017-10-15T09:03:26.631Z,-65
2017-10-15T09:13:26.644Z,-66
2017-10-15T09:23:26.611Z,-65
2017-10-15T09:33:26.641Z,-65
2017-10-15T09:43:26.642Z,-65
2017-10-15T09:53:26.660Z,-68
2017-10-15T10:03:26.629Z,-65
2017-10-15T10:13:26.652Z,-64
2017-10-15T10:23:26.658Z,-66
2017-10-15T10:33:26.673Z,-67
2017-10-15T10:43:26.722Z,-68
2017-10-15T10:53:26.761Z,-67
2017-10-15T11:03:26.718Z,-67
2017-10-15T11:13:26.722Z,-68
2017-10-15T11:23:26.708Z,-66
2017-10-15T11:33:26.694Z,-67
2017-10-15T11:43:26.672Z,-68
2017-10-15T11:53:26.780Z,-66
2017-10-15T12:03:26.698Z,-67
2017-10-15T12:13:26.742Z,-67
2017-10-15T12:23:26.727Z,-65
2017-10-15T12:33:26.702Z,-68
2017-10-15T12:43:27.504Z,-67
2017-10-15T12:53:27.372Z,-66
2017-10-15T13:03:26.777Z,-68
2017-10-15T13:13:26.712Z,-67
2017-10-15T13:23:26.728Z,-65
2017-10-15T13:33:26.700Z,-66
2017-10-15T13:43:26.772Z,-63
2017-10-15T13:53:26.774Z,-67
2017-10-15T14:03:26.777Z,-67
2017-10-15T14:13:41.303Z,-67
2017-10-15T14:23:26.758Z,-68
2017-10-15T14:33:26.760Z,-68
2017-10-15T14:43:26.732Z,-67
2017-10-15T14:53:26.735Z,-67
2017-10-15T15:03:26.863Z,-66
2017-10-15T15:13:26.724Z,-67
2017-10-15T15:23:26.728Z,-67
2017-10-15T15:33:26.728Z,-67
2017-10-15T15:43:27.433Z,-67
2017-10-15T15:53:26.765Z,-68
2017-10-15T16:03:26.720Z,-68
2017-10-15T16:13:26.782Z,-66
2017-10-15T16:23:26.758Z,-66
2017-10-15T16:33:26.737Z,-67
2017-10-15T16:43:26.843Z,-66
2017-10-15T16:53:26.828Z,-65
2017-10-15T17:03:26.903Z,-69
2017-10-15T17:13:26.785Z,-66
2017-10-15T17:23:26.826Z,-67
2017-10-15T17:33:27.009Z,-67
2017-10-15T17:43:26.844Z,-69
2017-10-15T17:53:27.010Z,-67
2017-10-15T18:03:27.103Z,-61
2017-10-15T18:13:26.872Z,-65
2017-10-15T18:23:26.974Z,-70
2017-10-15T18:33:27.680Z,-63
2017-10-15T18:43:30.625Z,-68
2017-10-15T18:53:31.461Z,-63
2017-10-15T19:03:31.758Z,-64
2017-10-15T19:13:32.436Z,-66
2017-10-15T19:23:32.313Z,-62
2017-10-15T19:33:32.177Z,-64
2017-10-15T19:43:33.639Z,-64
2017-10-15T19:53:31.468Z,-63
2017-10-15T20:03:27.422Z,-65
2017-10-15T20:13:29.157Z,-64
2017-10-15T20:23:27.193Z,-63
2017-10-15T20:33:26.960Z,-69
2017-10-15T20:43:26.889Z,-68
2017-10-15T20:53:26.819Z,-65
2017-10-15T21:03:27.145Z,-69
2017-10-15T21:13:26.811Z,-59
2017-10-15T21:23:26.760Z,-62
2017-10-15T21:33:26.825Z,-59
2017-10-15T21:43:26.809Z,-61
2017-10-15T21:53:26.844Z,-60
2017-10-15T22:03:26.781Z,-61
2017-10-15T22:13:27.047Z,-61
2017-10-15T22:23:26.909Z,-62
2017-10-15T22:33:26.835Z,-59
2017-10-15T22:43:26.828Z,-61
2017-10-15T22:53:26.793Z,-62
2017-10-15T23:03:26.769Z,-61
2017-10-15T23:13:26.802Z,-62
2017-10-15T23:23:26.800Z,-60
2017-10-15T23:33:26.747Z,-61
2017-10-15T23:43:26.860Z,-59
2017-10-15T23:53:26.747Z,-61
